Time;durP1;ratioP1;P1;durP2;ratioP2;P2;SDS_P1;SDS_P2;PMS_P1;PMS_P2;Temp;Humidity;BMP_temperature;BMP_pressure;BME280_temperature;BME280_humidity;BME280_pressure;Samples;Min_cycle;Max_cycle;Signal;HPM_P1;HPM_P2
2023/06/03 00:01:50;;;;;;;;;;;20.80;36.30;;;;;;5095632;28;19919;-62
2023/06/03 00:04:17;;;;;;;;;;;20.80;36.30;;;;;;5096146;28;19920;-62
2023/06/03 00:06:44;;;;;;;;;;;20.80;36.30;;;;;;5110140;28;19920;-61
2023/06/03 00:09:11;;;;;;;;;;;20.80;36.30;;;;;;5092164;28;20262;-61
2023/06/03 00:11:38;;;;;;;;;;;20.80;36.30;;;;;;5109639;28;19924;-61
2023/06/03 00:14:06;;;;;;;;;;;20.80;36.30;;;;;;5108726;28;19942;-60
2023/06/03 00:16:33;;;;;;;;;;;20.80;36.30;;;;;;5093606;28;19919;-61
2023/06/03 00:19:00;;;;;;;;;;;20.80;36.30;;;;;;5113007;28;19924;-61
2023/06/03 00:21:27;;;;;;;;;;;20.80;36.30;;;;;;5096250;28;19920;-60
2023/06/03 00:23:54;;;;;;;;;;;20.80;36.30;;;;;;5110227;28;20022;-61
2023/06/03 00:26:21;;;;;;;;;;;20.80;36.30;;;;;;5092979;28;19974;-61
2023/06/03 00:28:49;;;;;;;;;;;20.80;36.20;;;;;;5109621;28;19920;-61
2023/06/03 00:31:18;;;;;;;;;;;20.80;36.20;;;;;;5110674;28;19926;-61
2023/06/03 00:33:44;;;;;;;;;;;20.80;36.30;;;;;;5111758;28;20419;-62
2023/06/03 00:36:11;;;;;;;;;;;20.80;36.30;;;;;;5095291;28;19981;-62
2023/06/03 00:38:38;;;;;;;;;;;20.80;36.30;;;;;;5109545;28;19920;-61
2023/06/03 00:41:05;;;;;;;;;;;20.80;36.30;;;;;;5108210;28;20053;-61
2023/06/03 00:43:32;;;;;;;;;;;20.80;36.30;;;;;;5090006;28;20031;-61
2023/06/03 00:45:59;;;;;;;;;;;20.80;36.30;;;;;;5089283;28;19920;-61
2023/06/03 00:48:27;;;;;;;;;;;20.80;36.30;;;;;;5094464;28;19920;-61
2023/06/03 00:50:54;;;;;;;;;;;20.70;36.20;;;;;;5091652;28;19966;-61
2023/06/03 00:53:22;;;;;;;;;;;20.70;36.20;;;;;;5092706;28;20381;-62
2023/06/03 00:55:48;;;;;;;;;;;20.70;36.20;;;;;;5091229;28;19942;-61
2023/06/03 00:58:15;;;;;;;;;;;20.70;36.20;;;;;;5093839;28;20392;-62
2023/06/03 01:00:42;;;;;;;;;;;20.70;36.20;;;;;;5093088;28;19927;-61
2023/06/03 01:03:13;;;;;;;;;;;20.70;36.60;;;;;;5111588;28;19920;-61
2023/06/03 01:05:42;;;;;;;;;;;20.70;36.20;;;;;;5111279;28;19965;-61
2023/06/03 01:08:13;;;;;;;;;;;20.70;36.90;;;;;;5094035;28;19920;-61
2023/06/03 01:10:43;;;;;;;;;;;20.70;36.30;;;;;;5112074;28;19974;-61
2023/06/03 01:13:12;;;;;;;;;;;20.70;36.30;;;;;;5109103;28;19942;-61
2023/06/03 01:15:38;;;;;;;;;;;20.70;36.30;;;;;;5109248;28;19920;-62
2023/06/03 01:18:06;;;;;;;;;;;20.70;36.40;;;;;;5073333;28;20319;-62
2023/06/03 01:20:32;;;;;;;;;;;20.70;36.40;;;;;;5090725;28;19966;-62
2023/06/03 01:23:06;;;;;;;;;;;20.70;36.40;;;;;;5090789;28;19920;-61
2023/06/03 01:25:35;;;;;;;;;;;20.70;36.40;;;;;;5091597;28;19973;-62
2023/06/03 01:28:03;;;;;;;;;;;20.70;36.30;;;;;;5110446;28;19947;-61
2023/06/03 01:30:30;;;;;;;;;;;20.70;36.30;;;;;;5082974;28;20016;-61
2023/06/03 01:32:57;;;;;;;;;;;20.70;36.30;;;;;;5109631;28;19920;-60
2023/06/03 01:35:23;;;;;;;;;;;20.70;36.30;;;;;;5094515;28;19927;-60
2023/06/03 01:37:50;;;;;;;;;;;20.70;36.30;;;;;;5111203;28;19973;-59
2023/06/03 01:40:18;;;;;;;;;;;20.70;36.30;;;;;;5092786;28;19986;-59
2023/06/03 01:42:45;;;;;;;;;;;20.70;36.30;;;;;;5108478;28;19924;-59
2023/06/03 01:45:12;;;;;;;;;;;20.70;36.30;;;;;;5110886;28;19927;-60
2023/06/03 01:47:38;;;;;;;;;;;20.70;36.30;;;;;;5092989;28;19924;-60
2023/06/03 01:50:06;;;;;;;;;;;20.70;36.30;;;;;;5093324;28;19923;-59
2023/06/03 01:52:32;;;;;;;;;;;20.70;36.30;;;;;;5094352;28;19974;-59
2023/06/03 01:54:59;;;;;;;;;;;20.70;36.30;;;;;;5110329;28;19920;-59
2023/06/03 01:57:27;;;;;;;;;;;20.70;36.30;;;;;;5093852;28;19973;-59
2023/06/03 01:59:55;;;;;;;;;;;20.70;36.30;;;;;;5110097;28;19928;-59
2023/06/03 02:02:22;;;;;;;;;;;20.70;36.40;;;;;;5110458;28;20031;-59
2023/06/03 02:04:49;;;;;;;;;;;20.70;36.40;;;;;;5094191;28;19969;-59
2023/06/03 02:07:16;;;;;;;;;;;20.70;36.40;;;;;;5094361;28;19920;-60
2023/06/03 02:09:42;;;;;;;;;;;20.70;36.30;;;;;;5110619;28;19969;-60
2023/06/03 02:12:09;;;;;;;;;;;20.70;36.30;;;;;;5093639;28;19927;-60
2023/06/03 02:14:38;;;;;;;;;;;20.70;36.40;;;;;;5110345;28;20018;-60
2023/06/03 02:17:05;;;;;;;;;;;20.70;36.40;;;;;;5107918;28;19951;-59
2023/06/03 02:19:31;;;;;;;;;;;20.70;36.40;;;;;;5092900;28;20369;-62
2023/06/03 02:21:58;;;;;;;;;;;20.70;36.40;;;;;;5108252;28;19927;-61
2023/06/03 02:24:28;;;;;;;;;;;20.70;36.40;;;;;;5110729;28;19924;-61
2023/06/03 02:26:56;;;;;;;;;;;20.70;36.40;;;;;;5092752;28;19920;-61
2023/06/03 02:29:25;;;;;;;;;;;20.70;37.00;;;;;;5093192;28;19928;-61
2023/06/03 02:31:53;;;;;;;;;;;20.60;36.40;;;;;;5094036;28;19987;-61
2023/06/03 02:34:20;;;;;;;;;;;20.60;36.40;;;;;;5094015;28;19920;-62
2023/06/03 02:36:47;;;;;;;;;;;20.60;36.40;;;;;;5109669;28;19920;-61
2023/06/03 02:39:14;;;;;;;;;;;20.60;36.40;;;;;;5094007;28;20365;-62
2023/06/03 02:41:41;;;;;;;;;;;20.60;36.40;;;;;;5094254;28;19927;-62
2023/06/03 02:44:08;;;;;;;;;;;20.60;36.40;;;;;;5110216;28;19920;-62
2023/06/03 02:46:35;;;;;;;;;;;20.60;36.40;;;;;;5093262;28;19920;-62
2023/06/03 02:49:04;;;;;;;;;;;20.60;36.40;;;;;;5109717;28;19928;-61
2023/06/03 02:51:31;;;;;;;;;;;20.60;36.40;;;;;;5109672;28;19924;-62
2023/06/03 02:53:58;;;;;;;;;;;20.60;36.40;;;;;;5093946;28;19929;-62
2023/06/03 02:56:24;;;;;;;;;;;20.60;36.40;;;;;;5094051;28;19920;-61
2023/06/03 02:58:51;;;;;;;;;;;20.60;36.40;;;;;;5093916;28;19939;-61
2023/06/03 03:01:18;;;;;;;;;;;20.60;36.40;;;;;;5097785;28;19920;-61
2023/06/03 03:03:46;;;;;;;;;;;20.60;36.40;;;;;;5096556;28;19921;-62
2023/06/03 03:06:15;;;;;;;;;;;20.60;36.40;;;;;;5096859;28;19920;-61
2023/06/03 03:08:42;;;;;;;;;;;20.60;36.40;;;;;;5096474;28;20011;-62
2023/06/03 03:11:10;;;;;;;;;;;20.60;36.40;;;;;;5094663;28;20366;-61
2023/06/03 03:13:37;;;;;;;;;;;20.60;36.40;;;;;;5096306;28;19920;-62
2023/06/03 03:16:03;;;;;;;;;;;20.60;36.40;;;;;;5096833;28;19920;-59
2023/06/03 03:18:30;;;;;;;;;;;20.60;36.50;;;;;;5096327;28;20014;-59
2023/06/03 03:20:57;;;;;;;;;;;20.60;36.40;;;;;;5096268;28;19926;-60
2023/06/03 03:23:26;;;;;;;;;;;20.60;36.50;;;;;;5097032;28;19920;-59
2023/06/03 03:25:52;;;;;;;;;;;20.60;36.50;;;;;;5096375;28;19942;-59
2023/06/03 03:28:19;;;;;;;;;;;20.50;36.40;;;;;;5097863;28;19920;-59
2023/06/03 03:30:46;;;;;;;;;;;20.60;36.40;;;;;;5094222;28;19921;-59
2023/06/03 03:33:15;;;;;;;;;;;20.60;36.40;;;;;;5112800;28;20303;-59
2023/06/03 03:35:43;;;;;;;;;;;20.60;36.40;;;;;;5096794;28;19928;-60
2023/06/03 03:38:09;;;;;;;;;;;20.60;36.50;;;;;;5112561;28;19927;-60
2023/06/03 03:40:38;;;;;;;;;;;20.60;36.50;;;;;;5113006;28;20342;-60
2023/06/03 03:43:05;;;;;;;;;;;20.50;36.40;;;;;;5097642;28;19980;-60
2023/06/03 03:45:32;;;;;;;;;;;20.50;36.50;;;;;;5096410;28;19978;-60
2023/06/03 03:48:00;;;;;;;;;;;20.50;36.50;;;;;;5097155;28;20259;-60
2023/06/03 03:50:42;;;;;;;;;;;20.50;36.50;;;;;;5113615;28;20262;-60
2023/06/03 03:53:09;;;;;;;;;;;20.50;36.50;;;;;;5108507;28;19963;-60
2023/06/03 03:55:40;;;;;;;;;;;20.50;36.50;;;;;;5113333;28;19949;-61
2023/06/03 03:58:08;;;;;;;;;;;20.50;36.50;;;;;;5112124;28;20457;-61
2023/06/03 04:00:35;;;;;;;;;;;20.50;36.60;;;;;;5095613;28;19926;-60
2023/06/03 04:03:02;;;;;;;;;;;20.50;36.60;;;;;;5112351;28;20089;-61
2023/06/03 04:05:29;;;;;;;;;;;20.50;36.60;;;;;;5096766;28;19920;-61
2023/06/03 04:07:56;;;;;;;;;;;20.50;36.60;;;;;;5112374;28;19921;-60
2023/06/03 04:10:23;;;;;;;;;;;20.50;36.60;;;;;;5112418;28;19924;-61
2023/06/03 04:12:51;;;;;;;;;;;20.50;36.70;;;;;;5094733;28;19920;-61
2023/06/03 04:15:24;;;;;;;;;;;20.50;36.60;;;;;;5110561;28;19959;-61
2023/06/03 04:17:51;;;;;;;;;;;20.50;36.70;;;;;;5112164;28;19920;-60
2023/06/03 04:20:21;;;;;;;;;;;20.50;36.70;;;;;;5095194;28;19924;-61
2023/06/03 04:22:48;;;;;;;;;;;20.50;36.70;;;;;;5112547;28;19966;-61
2023/06/03 04:25:16;;;;;;;;;;;20.50;36.80;;;;;;5095020;28;19968;-61
2023/06/03 04:27:43;;;;;;;;;;;20.50;36.70;;;;;;5104556;28;19925;-61
2023/06/03 04:30:12;;;;;;;;;;;20.50;36.80;;;;;;5080523;28;19927;-61
2023/06/03 04:32:38;;;;;;;;;;;20.50;36.70;;;;;;5096113;28;19920;-61
2023/06/03 04:35:05;;;;;;;;;;;20.50;36.80;;;;;;5095986;28;19920;-61
2023/06/03 04:37:32;;;;;;;;;;;20.50;36.80;;;;;;5109918;28;19927;-61
2023/06/03 04:40:01;;;;;;;;;;;20.50;36.80;;;;;;5085506;28;19920;-61
2023/06/03 04:42:30;;;;;;;;;;;20.50;36.80;;;;;;5089928;28;19963;-60
2023/06/03 04:44:58;;;;;;;;;;;20.50;36.90;;;;;;5085213;28;19920;-61
2023/06/03 04:47:28;;;;;;;;;;;20.50;36.90;;;;;;5112170;28;20023;-61
2023/06/03 04:49:55;;;;;;;;;;;20.50;36.90;;;;;;5095757;28;19973;-60
2023/06/03 04:52:25;;;;;;;;;;;20.50;37.00;;;;;;5122514;27;19920;-61
2023/06/03 04:54:52;;;;;;;;;;;20.50;36.90;;;;;;5112189;27;19920;-61
2023/06/03 04:57:19;;;;;;;;;;;20.50;36.90;;;;;;5109370;28;19920;-61
2023/06/03 04:59:45;;;;;;;;;;;20.50;37.00;;;;;;5094099;28;20018;-60
2023/06/03 05:02:16;;;;;;;;;;;20.50;37.00;;;;;;5095006;28;19920;-60
2023/06/03 05:04:44;;;;;;;;;;;20.50;37.00;;;;;;5095079;28;19931;-60
2023/06/03 05:07:11;;;;;;;;;;;20.50;37.60;;;;;;5094237;28;19927;-61
2023/06/03 05:09:38;;;;;;;;;;;20.50;37.00;;;;;;5094950;28;19966;-61
2023/06/03 05:12:09;;;;;;;;;;;20.50;37.00;;;;;;5095113;28;19920;-61
2023/06/03 05:14:36;;;;;;;;;;;20.50;37.00;;;;;;5094566;28;19920;-61
2023/06/03 05:17:03;;;;;;;;;;;20.50;37.00;;;;;;5093997;28;19958;-60
2023/06/03 05:19:30;;;;;;;;;;;20.50;37.00;;;;;;5095319;28;20320;-60
2023/06/03 05:22:00;;;;;;;;;;;20.50;37.00;;;;;;5093866;28;19963;-60
2023/06/03 05:24:27;;;;;;;;;;;20.50;37.00;;;;;;5094907;28;19920;-61
2023/06/03 05:26:54;;;;;;;;;;;20.50;37.00;;;;;;5111309;28;19924;-61
2023/06/03 05:29:20;;;;;;;;;;;20.50;37.00;;;;;;5094676;28;19963;-60
2023/06/03 05:31:47;;;;;;;;;;;20.50;37.00;;;;;;5093616;28;19927;-60
2023/06/03 05:34:14;;;;;;;;;;;20.50;37.00;;;;;;5093667;28;19920;-60
2023/06/03 05:36:41;;;;;;;;;;;20.50;37.00;;;;;;5093992;28;19920;-60
2023/06/03 05:39:09;;;;;;;;;;;20.50;37.00;;;;;;5109295;28;19920;-60
2023/06/03 05:41:36;;;;;;;;;;;20.40;36.90;;;;;;5111597;28;19952;-61
2023/06/03 05:44:02;;;;;;;;;;;20.40;36.90;;;;;;5092982;28;20015;-61
2023/06/03 05:46:29;;;;;;;;;;;20.40;37.00;;;;;;5093280;28;19973;-60
2023/06/03 05:48:56;;;;;;;;;;;20.40;37.00;;;;;;5094527;28;19927;-60
2023/06/03 05:51:23;;;;;;;;;;;20.40;37.00;;;;;;5110221;28;19969;-60
2023/06/03 05:53:49;;;;;;;;;;;20.40;37.00;;;;;;5093190;28;19924;-60
2023/06/03 05:56:17;;;;;;;;;;;20.40;37.00;;;;;;5108126;28;19920;-60
2023/06/03 05:58:44;;;;;;;;;;;20.40;37.00;;;;;;5092092;28;19985;-61
2023/06/03 06:01:11;;;;;;;;;;;20.40;36.90;;;;;;5093731;28;19919;-60
2023/06/03 06:03:38;;;;;;;;;;;20.40;36.80;;;;;;5110328;28;19927;-61
2023/06/03 06:06:04;;;;;;;;;;;20.40;36.80;;;;;;5094134;28;19973;-61
2023/06/03 06:08:31;;;;;;;;;;;20.40;36.70;;;;;;5094390;28;19920;-61
2023/06/03 06:10:58;;;;;;;;;;;20.40;36.80;;;;;;5108169;28;20378;-60
2023/06/03 06:13:26;;;;;;;;;;;20.40;36.80;;;;;;5107764;28;19924;-61
2023/06/03 06:15:59;;;;;;;;;;;20.40;36.80;;;;;;5094654;28;19924;-61
2023/06/03 06:18:26;;;;;;;;;;;20.30;36.70;;;;;;5094247;28;19927;-61
2023/06/03 06:20:53;;;;;;;;;;;20.30;36.80;;;;;;5109877;28;19970;-61
2023/06/03 06:23:20;;;;;;;;;;;20.30;36.80;;;;;;5092901;28;19939;-61
2023/06/03 06:25:48;;;;;;;;;;;20.30;36.80;;;;;;5090860;28;20350;-61
2023/06/03 06:28:15;;;;;;;;;;;20.30;36.80;;;;;;5092723;28;19924;-61
2023/06/03 06:30:43;;;;;;;;;;;20.30;36.90;;;;;;5092816;28;19974;-61
2023/06/03 06:33:10;;;;;;;;;;;20.30;36.90;;;;;;5092650;28;19920;-61
2023/06/03 06:35:36;;;;;;;;;;;20.30;36.80;;;;;;5089917;28;19920;-61
2023/06/03 06:38:03;;;;;;;;;;;20.30;36.80;;;;;;5109764;28;19920;-61
2023/06/03 06:40:30;;;;;;;;;;;20.30;36.80;;;;;;5092711;28;19942;-60
2023/06/03 06:42:57;;;;;;;;;;;20.30;36.90;;;;;;5107725;28;19942;-60
2023/06/03 06:45:25;;;;;;;;;;;20.30;36.90;;;;;;5093923;28;19985;-60
2023/06/03 06:47:54;;;;;;;;;;;20.30;36.90;;;;;;5093361;28;20369;-61
2023/06/03 06:50:38;;;;;;;;;;;20.30;36.90;;;;;;5090058;28;19969;-61
2023/06/03 06:53:05;;;;;;;;;;;20.30;37.00;;;;;;5085906;28;19924;-61
2023/06/03 06:55:35;;;;;;;;;;;20.30;37.00;;;;;;5109635;28;19920;-61
2023/06/03 06:58:02;;;;;;;;;;;20.30;37.00;;;;;;5109440;28;19927;-62
2023/06/03 07:00:29;;;;;;;;;;;20.30;37.00;;;;;;5093903;28;19920;-61
2023/06/03 07:02:57;;;;;;;;;;;20.30;37.00;;;;;;5110120;28;19927;-62
2023/06/03 07:05:23;;;;;;;;;;;20.30;37.00;;;;;;5109431;28;19927;-62
2023/06/03 07:07:50;;;;;;;;;;;20.30;36.80;;;;;;5109281;28;19928;-61
2023/06/03 07:10:20;;;;;;;;;;;20.30;36.70;;;;;;5110213;28;19985;-61
2023/06/03 07:12:46;;;;;;;;;;;20.30;36.70;;;;;;5090639;28;19980;-62
2023/06/03 07:15:13;;;;;;;;;;;20.30;36.70;;;;;;5109473;28;19920;-62
2023/06/03 07:17:40;;;;;;;;;;;20.30;36.70;;;;;;5106991;28;19924;-62
2023/06/03 07:20:08;;;;;;;;;;;20.30;36.70;;;;;;5092289;28;19920;-62
2023/06/03 07:22:35;;;;;;;;;;;20.30;36.50;;;;;;5092270;28;19949;-60
2023/06/03 07:25:02;;;;;;;;;;;20.30;36.40;;;;;;5093131;28;19920;-61
2023/06/03 07:27:32;;;;;;;;;;;20.30;36.40;;;;;;5092701;28;19927;-61
2023/06/03 07:29:58;;;;;;;;;;;20.30;36.40;;;;;;5091181;28;19920;-60
2023/06/03 07:32:25;;;;;;;;;;;20.20;36.30;;;;;;5107433;28;19928;-57
2023/06/03 07:34:52;;;;;;;;;;;20.20;36.30;;;;;;5113517;28;19920;-62
2023/06/03 07:37:21;;;;;;;;;;;20.30;36.30;;;;;;5090446;28;20396;-62
2023/06/03 07:39:48;;;;;;;;;;;20.20;36.40;;;;;;5106376;28;20329;-61
2023/06/03 07:42:18;;;;;;;;;;;20.20;36.40;;;;;;5088934;28;19946;-62
2023/06/03 07:44:45;;;;;;;;;;;20.20;36.50;;;;;;5089285;28;19939;-62
2023/06/03 07:47:12;;;;;;;;;;;20.30;37.20;;;;;;5092596;28;19920;-61
2023/06/03 07:49:39;;;;;;;;;;;20.30;36.70;;;;;;5107273;28;19927;-61
2023/06/03 07:52:05;;;;;;;;;;;20.30;36.70;;;;;;5109185;28;19931;-61
2023/06/03 07:54:34;;;;;;;;;;;20.30;36.70;;;;;;5092514;28;20320;-61
2023/06/03 07:57:01;;;;;;;;;;;20.30;36.60;;;;;;5112538;28;19969;-61
2023/06/03 07:59:28;;;;;;;;;;;20.30;36.70;;;;;;5091716;28;19974;-61
2023/06/03 08:01:58;;;;;;;;;;;20.30;36.60;;;;;;5093834;28;19974;-61
2023/06/03 08:04:28;;;;;;;;;;;20.30;36.60;;;;;;5095628;28;19997;-61
2023/06/03 08:06:55;;;;;;;;;;;20.30;36.60;;;;;;5094797;28;20274;-64
2023/06/03 08:09:27;;;;;;;;;;;20.30;36.60;;;;;;5094428;28;20011;-59
2023/06/03 08:11:58;;;;;;;;;;;20.30;36.60;;;;;;5095577;28;19927;-62
2023/06/03 08:14:25;;;;;;;;;;;20.40;36.70;;;;;;5109346;28;19982;-58
2023/06/03 08:16:52;;;;;;;;;;;20.40;36.70;;;;;;5099377;28;19920;-62
2023/06/03 08:19:19;;;;;;;;;;;20.40;36.80;;;;;;5097963;28;19920;-62
2023/06/03 08:21:46;;;;;;;;;;;20.40;36.70;;;;;;5099098;28;19923;-60
2023/06/03 08:24:13;;;;;;;;;;;20.40;36.70;;;;;;5101051;28;19942;-61
2023/06/03 08:26:40;;;;;;;;;;;20.40;36.60;;;;;;5100126;28;20324;-60
2023/06/03 08:29:09;;;;;;;;;;;20.40;36.50;;;;;;5098848;28;19928;-62
2023/06/03 08:31:36;;;;;;;;;;;20.40;36.40;;;;;;5116006;28;20386;-60
2023/06/03 08:34:03;;;;;;;;;;;20.40;36.10;;;;;;5119078;28;19920;-60
2023/06/03 08:36:30;;;;;;;;;;;20.30;35.40;;;;;;5098446;28;19969;-60
2023/06/03 08:38:58;;;;;;;;;;;20.30;35.10;;;;;;5096819;28;19920;-61
2023/06/03 08:41:25;;;;;;;;;;;20.30;35.10;;;;;;5094223;28;19930;-62
2023/06/03 08:43:52;;;;;;;;;;;20.30;35.40;;;;;;5110433;28;19928;-62
2023/06/03 08:46:24;;;;;;;;;;;20.30;35.50;;;;;;5098445;28;19928;-61
2023/06/03 08:48:57;;;;;;;;;;;20.30;35.50;;;;;;5079358;28;19959;-62
2023/06/03 08:51:23;;;;;;;;;;;20.30;35.50;;;;;;5093836;28;20386;-62
2023/06/03 08:53:51;;;;;;;;;;;20.20;34.90;;;;;;5076692;28;20274;-61
2023/06/03 08:56:19;;;;;;;;;;;20.30;34.00;;;;;;5095517;28;20023;-62
2023/06/03 08:58:47;;;;;;;;;;;20.20;34.00;;;;;;5082238;28;20012;-60
2023/06/03 09:01:14;;;;;;;;;;;20.20;34.60;;;;;;5096307;28;20061;-61
2023/06/03 09:03:42;;;;;;;;;;;20.20;34.00;;;;;;5078427;28;20556;-62
2023/06/03 09:06:09;;;;;;;;;;;20.10;34.10;;;;;;5096101;28;19924;-62
2023/06/03 09:08:37;;;;;;;;;;;20.10;34.00;;;;;;5113163;28;19932;-61
2023/06/03 09:11:06;;;;;;;;;;;20.10;33.70;;;;;;5092677;28;20654;-63
2023/06/03 09:13:34;;;;;;;;;;;20.10;33.80;;;;;;5097407;28;19981;-62
2023/06/03 09:16:02;;;;;;;;;;;20.00;33.20;;;;;;5096156;28;19962;-61
2023/06/03 09:18:29;;;;;;;;;;;20.00;33.00;;;;;;5097379;28;19924;-62
2023/06/03 09:20:57;;;;;;;;;;;20.00;33.20;;;;;;5098503;28;19920;-62
2023/06/03 09:23:26;;;;;;;;;;;20.00;33.10;;;;;;5113509;28;19927;-61
2023/06/03 09:25:53;;;;;;;;;;;19.90;33.10;;;;;;5095057;28;19920;-62
2023/06/03 09:28:20;;;;;;;;;;;19.90;32.90;;;;;;5115130;28;19920;-63
2023/06/03 09:30:47;;;;;;;;;;;19.90;32.90;;;;;;5116679;28;19924;-63
2023/06/03 09:33:14;;;;;;;;;;;19.90;33.10;;;;;;5094433;28;19924;-62
2023/06/03 09:35:41;;;;;;;;;;;19.90;33.10;;;;;;5093051;28;19965;-57
2023/06/03 09:38:09;;;;;;;;;;;19.90;33.30;;;;;;5093543;28;19920;-62
2023/06/03 09:40:36;;;;;;;;;;;19.90;33.30;;;;;;5094606;28;19921;-61
2023/06/03 09:43:03;;;;;;;;;;;19.90;33.10;;;;;;5093900;28;19920;-62
2023/06/03 09:45:30;;;;;;;;;;;19.90;33.20;;;;;;5094698;28;19920;-61
2023/06/03 09:47:57;;;;;;;;;;;19.80;33.10;;;;;;5094274;28;19931;-62
2023/06/03 09:50:24;;;;;;;;;;;19.80;33.10;;;;;;5106678;28;19969;-61
2023/06/03 09:52:50;;;;;;;;;;;19.80;33.30;;;;;;5106682;28;20016;-62
2023/06/03 09:55:19;;;;;;;;;;;19.80;33.60;;;;;;5108469;28;19924;-62
2023/06/03 09:58:02;;;;;;;;;;;19.90;33.80;;;;;;5092690;28;19920;-62
2023/06/03 10:00:29;;;;;;;;;;;19.90;33.90;;;;;;5110020;28;20377;-61
2023/06/03 10:03:06;;;;;;;;;;;19.90;34.00;;;;;;5110425;28;19920;-61
2023/06/03 10:05:33;;;;;;;;;;;19.90;34.00;;;;;;5110263;28;19920;-61
2023/06/03 10:08:01;;;;;;;;;;;19.90;33.90;;;;;;5093255;28;19927;-61
2023/06/03 10:10:29;;;;;;;;;;;20.00;33.90;;;;;;5088889;28;19973;-60
2023/06/03 10:12:56;;;;;;;;;;;20.00;33.90;;;;;;5110774;28;19955;-61
2023/06/03 10:15:36;;;;;;;;;;;20.00;33.70;;;;;;5101364;28;19920;-61
2023/06/03 10:18:03;;;;;;;;;;;20.00;33.50;;;;;;5091803;28;19920;-62
2023/06/03 10:20:33;;;;;;;;;;;20.00;33.60;;;;;;5108790;28;19924;-61
2023/06/03 10:23:00;;;;;;;;;;;20.00;33.70;;;;;;5108109;28;19920;-62
2023/06/03 10:25:27;;;;;;;;;;;20.00;33.90;;;;;;5108084;28;19924;-61
2023/06/03 10:27:55;;;;;;;;;;;20.00;34.00;;;;;;5105746;28;19920;-62
2023/06/03 10:30:25;;;;;;;;;;;20.00;33.90;;;;;;5090105;28;19920;-62
2023/06/03 10:32:53;;;;;;;;;;;20.00;34.00;;;;;;5089315;28;19924;-61
2023/06/03 10:35:19;;;;;;;;;;;20.00;34.00;;;;;;5092087;28;19942;-63
2023/06/03 10:37:46;;;;;;;;;;;20.00;34.10;;;;;;5095893;28;19920;-59
2023/06/03 10:40:13;;;;;;;;;;;20.00;34.10;;;;;;5110453;28;19920;-62
2023/06/03 10:42:40;;;;;;;;;;;20.00;34.00;;;;;;5086924;28;20322;-62
2023/06/03 10:45:09;;;;;;;;;;;20.10;34.00;;;;;;5099101;28;19920;-61
2023/06/03 10:47:36;;;;;;;;;;;20.10;34.00;;;;;;5091480;28;19943;-61
2023/06/03 10:50:05;;;;;;;;;;;20.10;33.90;;;;;;5094144;28;19927;-60
2023/06/03 10:52:39;;;;;;;;;;;20.10;33.80;;;;;;5109209;28;19927;-62
2023/06/03 10:55:09;;;;;;;;;;;20.10;33.80;;;;;;5090929;28;20416;-62
2023/06/03 10:57:41;;;;;;;;;;;20.10;33.70;;;;;;5091518;28;19975;-62
2023/06/03 11:00:11;;;;;;;;;;;20.10;33.80;;;;;;5091431;28;19924;-62
2023/06/03 11:02:57;;;;;;;;;;;20.10;33.90;;;;;;5089955;28;19924;-62
2023/06/03 11:05:24;;;;;;;;;;;20.10;34.00;;;;;;5101657;28;20385;-62
2023/06/03 11:07:50;;;;;;;;;;;20.10;34.00;;;;;;5106071;28;20413;-61
2023/06/03 11:10:36;;;;;;;;;;;20.10;33.90;;;;;;5091007;28;19931;-62
2023/06/03 11:13:03;;;;;;;;;;;20.10;33.80;;;;;;5089636;28;19920;-62
2023/06/03 11:15:44;;;;;;;;;;;20.10;33.70;;;;;;5106290;28;19920;-63
2023/06/03 11:18:16;;;;;;;;;;;20.10;33.70;;;;;;5088741;28;19920;-62
2023/06/03 11:20:42;;;;;;;;;;;20.10;33.60;;;;;;5094827;28;19955;-62
2023/06/03 11:23:09;;;;;;;;;;;20.10;33.60;;;;;;5097897;28;19920;-63
2023/06/03 11:25:38;;;;;;;;;;;20.10;33.30;;;;;;5094448;28;19920;-62
2023/06/03 11:28:34;;;;;;;;;;;20.10;33.20;;;;;;5100226;28;19924;-64
2023/06/03 11:31:02;;;;;;;;;;;20.10;33.20;;;;;;5111541;28;19991;-59
2023/06/03 11:33:31;;;;;;;;;;;20.10;33.30;;;;;;5084457;28;19920;-62
2023/06/03 11:35:57;;;;;;;;;;;20.10;33.30;;;;;;5078882;28;19928;-62
2023/06/03 11:38:43;;;;;;;;;;;20.10;33.50;;;;;;5090657;28;19920;-62
2023/06/03 11:41:09;;;;;;;;;;;20.10;33.50;;;;;;5094296;28;19921;-62
2023/06/03 11:43:36;;;;;;;;;;;20.10;33.60;;;;;;5095297;28;19923;-63
2023/06/03 11:46:06;;;;;;;;;;;20.20;33.70;;;;;;5113053;28;19924;-62
2023/06/03 11:48:37;;;;;;;;;;;20.20;33.70;;;;;;5101900;28;19920;-62
2023/06/03 11:51:04;;;;;;;;;;;20.20;33.80;;;;;;5095576;28;19932;-61
2023/06/03 11:53:31;;;;;;;;;;;20.20;33.80;;;;;;5116051;28;19920;-62
2023/06/03 11:56:01;;;;;;;;;;;20.20;33.80;;;;;;5099893;28;20471;-61
2023/06/03 11:58:28;;;;;;;;;;;20.20;33.60;;;;;;5077298;28;19924;-62
2023/06/03 12:01:03;;;;;;;;;;;20.20;33.50;;;;;;5077256;28;20374;-61
2023/06/03 12:03:30;;;;;;;;;;;20.20;33.40;;;;;;5098579;28;19920;-61
2023/06/03 12:06:01;;;;;;;;;;;20.20;33.30;;;;;;5092323;28;19920;-62
2023/06/03 12:08:41;;;;;;;;;;;20.20;33.50;;;;;;5079385;28;19925;-66
2023/06/03 12:11:08;;;;;;;;;;;20.20;33.60;;;;;;5076480;28;19944;-61
2023/06/03 12:13:38;;;;;;;;;;;20.20;33.80;;;;;;5076083;28;19985;-60
2023/06/03 12:16:05;;;;;;;;;;;20.20;33.80;;;;;;5091922;28;20377;-61
2023/06/03 12:18:32;;;;;;;;;;;20.20;33.50;;;;;;5095971;28;19924;-61
2023/06/03 12:21:08;;;;;;;;;;;20.20;32.90;;;;;;5110914;28;19949;-61
2023/06/03 12:23:35;;;;;;;;;;;20.20;32.30;;;;;;5090467;28;19927;-62
2023/06/03 12:26:02;;;;;;;;;;;20.20;31.70;;;;;;5110799;28;19924;-61
2023/06/03 12:28:29;;;;;;;;;;;20.20;31.00;;;;;;5108805;28;19923;-59
2023/06/03 12:30:56;;;;;;;;;;;20.10;30.90;;;;;;5104419;28;19943;-60
2023/06/03 12:33:23;;;;;;;;;;;20.10;30.80;;;;;;5091358;28;19920;-60
2023/06/03 12:35:53;;;;;;;;;;;20.10;30.70;;;;;;5112245;28;19927;-61
2023/06/03 12:38:21;;;;;;;;;;;20.10;31.30;;;;;;5109572;28;19920;-60
2023/06/03 12:40:48;;;;;;;;;;;20.00;30.70;;;;;;5091375;28;19991;-60
2023/06/03 12:43:18;;;;;;;;;;;20.00;30.70;;;;;;5094697;28;19972;-61
2023/06/03 12:45:45;;;;;;;;;;;20.00;30.70;;;;;;5091764;28;19920;-60
2023/06/03 12:48:18;;;;;;;;;;;20.00;30.60;;;;;;5091504;28;19927;-59
2023/06/03 12:50:44;;;;;;;;;;;20.00;30.30;;;;;;5107250;28;19920;-61
2023/06/03 12:53:14;;;;;;;;;;;20.00;30.10;;;;;;5108269;28;19973;-61
2023/06/03 12:55:42;;;;;;;;;;;20.00;30.10;;;;;;5091630;28;20011;-57
2023/06/03 12:58:09;;;;;;;;;;;20.00;30.50;;;;;;5091022;28;19920;-61
2023/06/03 13:00:36;;;;;;;;;;;20.00;30.70;;;;;;5092292;28;19924;-61
2023/06/03 13:03:02;;;;;;;;;;;19.90;30.60;;;;;;5107743;28;19920;-61
2023/06/03 13:05:29;;;;;;;;;;;20.00;30.60;;;;;;5110784;27;19927;-62
2023/06/03 13:07:56;;;;;;;;;;;20.00;30.50;;;;;;5092568;28;20291;-61
2023/06/03 13:10:23;;;;;;;;;;;20.00;30.30;;;;;;5097165;28;19921;-60
2023/06/03 13:12:51;;;;;;;;;;;20.00;30.00;;;;;;5111240;28;19924;-62
2023/06/03 13:15:18;;;;;;;;;;;20.00;30.00;;;;;;5110981;28;20353;-61
2023/06/03 13:17:44;;;;;;;;;;;19.90;30.00;;;;;;5094166;28;19927;-61
2023/06/03 13:20:11;;;;;;;;;;;20.00;30.00;;;;;;5111213;28;19920;-62
2023/06/03 13:22:38;;;;;;;;;;;19.90;30.00;;;;;;5095290;28;19920;-62
2023/06/03 13:25:05;;;;;;;;;;;19.90;30.00;;;;;;5111013;28;19927;-60
2023/06/03 13:27:32;;;;;;;;;;;19.90;30.00;;;;;;5095119;28;19928;-61
2023/06/03 13:30:01;;;;;;;;;;;19.90;29.90;;;;;;5092102;28;19959;-61
2023/06/03 13:32:27;;;;;;;;;;;19.90;29.70;;;;;;5110564;28;19920;-61
2023/06/03 13:34:55;;;;;;;;;;;19.90;29.80;;;;;;5093609;28;19920;-62
2023/06/03 13:37:21;;;;;;;;;;;19.90;29.90;;;;;;5110780;28;19920;-62
2023/06/03 13:39:48;;;;;;;;;;;19.90;29.60;;;;;;5092021;28;19924;-62
2023/06/03 13:42:15;;;;;;;;;;;19.90;29.70;;;;;;5093779;28;19973;-61
2023/06/03 13:44:42;;;;;;;;;;;19.90;29.80;;;;;;5093420;28;19920;-61
2023/06/03 13:47:10;;;;;;;;;;;19.90;30.00;;;;;;5093633;28;20269;-61
2023/06/03 13:49:36;;;;;;;;;;;20.00;30.10;;;;;;5091851;28;19926;-61
2023/06/03 13:52:04;;;;;;;;;;;20.00;30.00;;;;;;5093324;28;19920;-61
2023/06/03 13:54:31;;;;;;;;;;;20.00;29.60;;;;;;5091199;28;19924;-61
2023/06/03 13:56:57;;;;;;;;;;;19.90;29.90;;;;;;5094712;28;19920;-63
2023/06/03 13:59:24;;;;;;;;;;;20.00;30.70;;;;;;5110112;28;20346;-64
2023/06/03 14:01:51;;;;;;;;;;;20.00;30.80;;;;;;5092598;28;19927;-62
2023/06/03 14:04:19;;;;;;;;;;;20.00;30.90;;;;;;5097277;28;19931;-60
2023/06/03 14:06:46;;;;;;;;;;;20.00;30.90;;;;;;5093507;28;19920;-60
2023/06/03 14:09:13;;;;;;;;;;;20.00;30.80;;;;;;5110857;28;20346;-60
2023/06/03 14:11:40;;;;;;;;;;;20.00;30.30;;;;;;5109860;28;20328;-61
2023/06/03 14:14:06;;;;;;;;;;;20.00;29.60;;;;;;5093088;28;19965;-60
2023/06/03 14:16:33;;;;;;;;;;;20.00;29.50;;;;;;5110525;28;19966;-61
2023/06/03 14:19:00;;;;;;;;;;;20.00;29.70;;;;;;5093772;28;19924;-59
2023/06/03 14:21:28;;;;;;;;;;;20.00;29.90;;;;;;5101731;28;19920;-60